Time;durP1;ratioP1;P1;durP2;ratioP2;P2;SDS_P1;SDS_P2;PMS_P1;PMS_P2;Temp;Humidity;BMP_temperature;BMP_pressure;BME280_temperature;BME280_humidity;BME280_pressure;Samples;Min_cycle;Max_cycle;Signal;HPM_P1;HPM_P2
2021/04/28 00:02:17;;;;;;;9.25;7.75;;;;;;;16.60;45.24;99101.06;5036451;28;20018;-80
2021/04/28 00:04:42;;;;;;;9.50;7.30;;;;;;;16.79;45.28;99140.78;5035983;28;20052;-81
2021/04/28 00:07:08;;;;;;;12.25;8.02;;;;;;;16.53;45.67;99101.97;5018454;28;20060;-82
2021/04/28 00:09:33;;;;;;;10.43;8.30;;;;;;;16.41;45.87;99102.97;5036263;28;20029;-81
2021/04/28 00:11:59;;;;;;;9.38;7.70;;;;;;;15.97;45.91;99022.41;5035778;28;20100;-80
2021/04/28 00:14:24;;;;;;;8.75;7.82;;;;;;;16.53;46.08;99141.13;5035999;28;20040;-81
2021/04/28 00:16:50;;;;;;;9.52;7.53;;;;;;;16.67;46.27;99163.94;5036703;28;20029;-80
2021/04/28 00:19:16;;;;;;;10.77;8.27;;;;;;;16.50;46.59;99137.06;5035861;28;20029;-82
2021/04/28 00:21:42;;;;;;;10.63;8.63;;;;;;;15.95;46.49;99051.09;5018132;28;20029;-81
2021/04/28 00:24:08;;;;;;;10.93;8.23;;;;;;;16.58;46.54;99149.25;5018118;28;20100;-81
2021/04/28 00:26:34;;;;;;;11.57;8.02;;;;;;;16.33;46.48;99113.91;5036386;28;20029;-80
2021/04/28 00:28:59;;;;;;;11.90;7.70;;;;;;;16.62;46.38;99160.28;5035545;28;20108;-81
2021/04/28 00:31:24;;;;;;;11.18;8.07;;;;;;;16.04;46.45;99083.56;5018011;28;20087;-82
2021/04/28 00:33:50;;;;;;;13.18;8.10;;;;;;;16.59;46.52;99160.72;5035332;28;20053;-80
2021/04/28 00:36:15;;;;;;;11.55;7.68;;;;;;;16.44;46.40;99127.31;5018451;28;20392;-81
2021/04/28 00:38:41;;;;;;;12.18;8.00;;;;;;;16.60;46.63;99152.50;5035282;28;20082;-79
2021/04/28 00:41:08;;;;;;;14.98;8.90;;;;;;;16.18;46.73;99093.00;5017926;28;20018;-81
2021/04/28 00:43:35;;;;;;;10.35;8.02;;;;;;;16.02;46.81;99067.81;5018732;28;20105;-82
2021/04/28 00:46:00;;;;;;;13.10;8.85;;;;;;;16.55;46.85;99152.38;5035411;28;20428;-82
2021/04/28 00:48:26;;;;;;;11.23;8.60;;;;;;;16.51;46.73;99151.22;5035426;28;20040;-82
2021/04/28 00:50:52;;;;;;;10.18;7.65;;;;;;;16.55;46.77;99167.56;5017732;28;20036;-81
2021/04/28 00:53:22;;;;;;;9.25;8.30;;;;;;;16.49;47.16;99163.94;5018445;28;20033;-81
2021/04/28 00:55:48;;;;;;;11.05;8.82;;;;;;;15.37;47.22;98987.69;5035279;28;20033;-81
2021/04/28 00:58:14;;;;;;;10.82;8.93;;;;;;;16.48;46.82;99141.81;5035293;28;20092;-81
2021/04/28 01:00:41;;;;;;;11.48;9.50;;;;;;;16.50;46.75;99149.56;5017514;28;20124;-81
2021/04/28 01:03:07;;;;;;;12.00;9.63;;;;;;;15.85;46.78;99054.31;5035447;28;20028;-81
2021/04/28 01:05:33;;;;;;;13.85;9.00;;;;;;;15.75;46.60;99040.72;5040896;28;20383;-81
2021/04/28 01:07:59;;;;;;;11.70;9.50;;;;;;;15.93;46.89;99076.34;5044007;28;20501;-81
2021/04/28 01:10:27;;;;;;;12.80;10.02;;;;;;;15.86;46.65;99055.94;5034903;28;20117;-81
2021/04/28 01:12:53;;;;;;;11.05;9.32;;;;;;;16.40;47.16;99155.44;5017480;28;20025;-81
2021/04/28 01:15:22;;;;;;;13.10;9.85;;;;;;;16.36;47.12;99158.78;5035068;28;20083;-80
2021/04/28 01:17:47;;;;;;;11.82;10.60;;;;;;;15.81;47.14;99074.41;5034771;28;20029;-81
2021/04/28 01:20:15;;;;;;;11.95;9.40;;;;;;;15.80;47.29;99069.31;5036156;28;20112;-80
2021/04/28 01:22:45;;;;;;;14.90;10.25;;;;;;;16.01;47.18;99113.31;5034826;28;20384;-82
2021/04/28 01:25:13;;;;;;;13.35;9.88;;;;;;;16.13;47.17;99141.63;5034964;28;20463;-81
2021/04/28 01:27:41;;;;;;;12.90;10.20;;;;;;;16.36;47.13;99159.59;5017086;28;20070;-81
2021/04/28 01:30:08;;;;;;;17.63;10.57;;;;;;;16.34;47.42;99144.84;5034875;28;20040;-81
2021/04/28 01:32:37;;;;;;;14.05;11.85;;;;;;;15.87;47.24;99086.03;5034475;28;20025;-82
2021/04/28 01:35:04;;;;;;;12.00;10.80;;;;;;;14.96;47.46;98952.97;5034600;28;20025;-81
2021/04/28 01:37:31;;;;;;;12.32;10.30;;;;;;;15.78;47.52;99072.22;5034421;28;20037;-82
2021/04/28 01:39:58;;;;;;;13.48;10.75;;;;;;;16.20;47.49;99155.66;5035191;28;20033;-79
2021/04/28 01:42:24;;;;;;;12.30;10.95;;;;;;;15.73;47.84;99088.03;5034670;28;20018;-82
2021/04/28 01:44:50;;;;;;;15.43;11.82;;;;;;;15.98;47.83;99151.84;5034450;28;20033;-82
2021/04/28 01:47:19;;;;;;;16.20;12.68;;;;;;;16.04;47.96;99144.81;5034786;28;20029;-81
2021/04/28 01:49:46;;;;;;;14.70;11.75;;;;;;;15.95;48.30;99148.81;5034727;28;20108;-82
2021/04/28 01:52:12;;;;;;;15.68;12.93;;;;;;;15.89;48.68;99151.31;5034331;28;20033;-81
2021/04/28 01:54:38;;;;;;;14.70;12.07;;;;;;;15.48;48.48;99079.25;5034404;28;20108;-81
2021/04/28 01:57:05;;;;;;;15.32;12.38;;;;;;;15.89;48.61;99153.16;5017152;28;20096;-81
2021/04/28 01:59:32;;;;;;;17.95;12.65;;;;;;;15.84;48.73;99151.19;5034347;28;20037;-81
2021/04/28 02:01:58;;;;;;;14.35;12.70;;;;;;;15.61;48.82;99115.59;5016719;28;20108;-83
2021/04/28 02:04:24;;;;;;;16.55;14.20;;;;;;;15.76;48.86;99140.81;5037687;28;20072;-79
2021/04/28 02:06:51;;;;;;;17.67;14.50;;;;;;;15.19;49.15;99062.97;5038395;28;20037;-82
2021/04/28 02:09:17;;;;;;;21.02;14.30;;;;;;;15.38;49.31;99105.53;5020746;28;20052;-80
2021/04/28 02:11:42;;;;;;;18.02;14.00;;;;;;;15.41;49.55;99115.75;5038082;28;20104;-80
2021/04/28 02:14:13;;;;;;;17.75;12.95;;;;;;;15.42;49.97;99122.69;5038224;28;20408;-79
2021/04/28 02:16:40;;;;;;;26.88;14.32;;;;;;;15.48;49.73;99132.44;5020874;28;20087;-80
2021/04/28 02:19:09;;;;;;;17.58;15.40;;;;;;;15.46;50.11;99130.00;5020567;28;20056;-80
2021/04/28 02:21:39;;;;;;;17.80;14.45;;;;;;;15.21;49.91;99097.31;5038005;28;20034;-80
2021/04/28 02:24:08;;;;;;;17.98;14.70;;;;;;;14.80;49.99;99020.75;5038211;28;20459;-80
2021/04/28 02:26:34;;;;;;;19.98;16.27;;;;;;;15.07;50.08;99067.38;5038250;28;20024;-81
2021/04/28 02:29:00;;;;;;;19.40;15.43;;;;;;;14.87;50.22;99046.28;5037888;28;20116;-80
2021/04/28 02:31:25;;;;;;;19.48;14.52;;;;;;;14.74;50.17;99029.59;5037877;28;20108;-79
2021/04/28 02:33:51;;;;;;;19.05;15.13;;;;;;;15.31;50.66;99161.47;5038067;28;20025;-80
2021/04/28 02:36:17;;;;;;;17.02;15.23;;;;;;;15.25;50.73;99143.72;5037782;28;20134;-80
2021/04/28 02:38:53;;;;;;;18.13;16.17;;;;;;;15.19;51.05;99142.75;5037625;28;20025;-82
2021/04/28 02:41:21;;;;;;;18.20;15.52;;;;;;;14.97;50.90;99117.56;5037687;28;20163;-81
2021/04/28 02:43:47;;;;;;;18.15;16.27;;;;;;;14.71;50.97;99073.38;5037573;28;20116;-80
2021/04/28 02:46:14;;;;;;;22.23;16.45;;;;;;;14.81;51.02;99102.13;5037786;28;20033;-79
2021/04/28 02:48:46;;;;;;;21.15;16.15;;;;;;;14.98;51.17;99121.84;5037406;28;20348;-82
2021/04/28 02:51:12;;;;;;;21.08;16.75;;;;;;;14.47;51.11;99037.78;5019796;28;20459;-79
2021/04/28 02:53:41;;;;;;;21.08;17.40;;;;;;;15.09;51.40;99145.06;5037443;28;20040;-80
2021/04/28 02:56:07;;;;;;;21.98;17.83;;;;;;;14.78;51.98;99118.50;5037511;28;20035;-81
2021/04/28 02:58:33;;;;;;;22.42;16.67;;;;;;;14.96;51.88;99161.13;5019752;28;20021;-80
2021/04/28 03:00:58;;;;;;;22.20;16.48;;;;;;;14.46;51.67;99069.88;5038613;28;20037;-80
2021/04/28 03:03:24;;;;;;;24.88;18.75;;;;;;;14.89;52.01;99131.94;5042562;28;20017;-78
2021/04/28 03:05:52;;;;;;;20.70;16.52;;;;;;;15.09;51.93;99176.97;5037133;28;20033;-81
2021/04/28 03:08:18;;;;;;;22.67;16.33;;;;;;;14.76;52.11;99121.38;5037306;28;20033;-81
2021/04/28 03:10:45;;;;;;;19.42;16.33;;;;;;;15.09;52.21;99178.81;5036998;28;20459;-80
2021/04/28 03:13:11;;;;;;;23.13;18.52;;;;;;;14.94;52.50;99169.31;5019723;28;20051;-80
2021/04/28 03:15:37;;;;;;;22.95;17.45;;;;;;;14.96;52.62;99166.44;5035978;28;20424;-80
2021/04/28 03:18:02;;;;;;;22.92;18.40;;;;;;;14.06;53.12;99048.00;5019429;28;20432;-81
2021/04/28 03:20:29;;;;;;;19.63;17.52;;;;;;;14.86;53.03;99187.34;5019318;28;20025;-80
2021/04/28 03:22:54;;;;;;;24.02;17.33;;;;;;;14.76;53.35;99182.50;5036896;28;20025;-76
2021/04/28 03:25:20;;;;;;;22.77;18.30;;;;;;;14.37;53.36;99122.41;5036924;28;20388;-79
2021/04/28 03:27:46;;;;;;;24.05;19.45;;;;;;;14.20;53.46;99081.44;5037475;28;20527;-78
2021/04/28 03:30:12;;;;;;;20.65;17.25;;;;;;;13.99;53.46;99072.72;5036805;28;20104;-82
2021/04/28 03:32:37;;;;;;;25.67;19.88;;;;;;;14.56;53.76;99171.16;5036557;28;20057;-79
2021/04/28 03:35:04;;;;;;;23.35;19.00;;;;;;;14.85;53.89;99201.66;5036571;28;20029;-81
2021/04/28 03:37:29;;;;;;;28.13;21.63;;;;;;;14.41;53.61;99120.13;5036444;28;20033;-80
2021/04/28 03:39:55;;;;;;;25.45;20.48;;;;;;;14.65;54.08;99153.94;5036681;28;20321;-80
2021/04/28 03:42:22;;;;;;;28.15;21.75;;;;;;;14.58;53.65;99151.34;5036587;28;20044;-80
2021/04/28 03:44:48;;;;;;;29.50;22.13;;;;;;;14.44;54.02;99138.34;5036424;28;20495;-79
2021/04/28 03:47:13;;;;;;;34.47;22.75;;;;;;;14.61;54.29;99169.50;5018942;28;20108;-77
2021/04/28 03:49:39;;;;;;;27.10;21.40;;;;;;;14.19;54.14;99096.56;5019013;28;20171;-80
2021/04/28 03:52:04;;;;;;;25.73;21.67;;;;;;;14.88;54.18;99204.75;5018802;28;20321;-79
2021/04/28 03:54:30;;;;;;;27.17;22.67;;;;;;;14.49;54.45;99168.53;5018797;28;20051;-82
2021/04/28 03:56:55;;;;;;;24.20;21.10;;;;;;;14.84;54.23;99210.66;5018688;28;20420;-79
2021/04/28 03:59:21;;;;;;;28.80;21.95;;;;;;;14.51;54.42;99169.16;5036337;28;20029;-79
2021/04/28 04:01:46;;;;;;;30.75;25.15;;;;;;;14.88;54.42;99206.56;5018525;28;20495;-79
2021/04/28 04:04:12;;;;;;;29.63;23.00;;;;;;;14.90;54.64;99217.81;5036044;28;20108;-78
2021/04/28 04:06:37;;;;;;;27.77;22.67;;;;;;;14.75;54.54;99193.34;5018434;28;20025;-79
2021/04/28 04:09:05;;;;;;;27.15;22.73;;;;;;;14.94;54.34;99234.97;5018446;28;20021;-78
2021/04/28 04:11:30;;;;;;;28.45;21.52;;;;;;;14.98;54.61;99235.34;5018590;28;20021;-80
2021/04/28 04:13:56;;;;;;;25.73;22.63;;;;;;;14.78;54.58;99201.69;5035783;28;20479;-81
2021/04/28 04:16:21;;;;;;;27.33;24.08;;;;;;;14.65;54.59;99193.00;5036022;28;20028;-82
2021/04/28 04:18:47;;;;;;;23.98;19.85;;;;;;;14.46;54.82;99165.50;5018167;28;20420;-78
2021/04/28 04:21:12;;;;;;;30.35;22.67;;;;;;;15.04;54.53;99239.81;5035772;28;20079;-78
2021/04/28 04:23:37;;;;;;;30.70;23.35;;;;;;;15.12;54.53;99245.69;5018214;28;20026;-77
2021/04/28 04:26:03;;;;;;;31.60;23.05;;;;;;;14.51;54.42;99161.19;5035327;28;20080;-75
2021/04/28 04:28:28;;;;;;;30.85;23.20;;;;;;;15.22;54.45;99267.31;5036117;28;20034;-78
2021/04/28 04:30:54;;;;;;;32.40;25.15;;;;;;;15.25;54.38;99264.22;5035465;28;20412;-77
2021/04/28 04:33:19;;;;;;;31.30;24.33;;;;;;;15.01;54.84;99238.41;5035516;28;20032;-77
2021/04/28 04:35:45;;;;;;;30.45;23.27;;;;;;;15.21;54.67;99268.34;5018072;28;20025;-76
2021/04/28 04:38:16;;;;;;;31.02;24.45;;;;;;;14.95;55.20;99233.94;5035320;28;20029;-75
2021/04/28 04:40:41;;;;;;;32.95;24.25;;;;;;;15.18;54.97;99286.56;5035521;28;20030;-77
2021/04/28 04:43:07;;;;;;;33.33;23.90;;;;;;;15.16;54.97;99276.16;5035366;28;20028;-77
2021/04/28 04:45:35;;;;;;;32.97;25.40;;;;;;;15.24;54.71;99288.38;5035204;28;20107;-78
2021/04/28 04:48:06;;;;;;;33.85;25.10;;;;;;;15.18;55.25;99287.38;5035159;28;20136;-75
2021/04/28 04:50:32;;;;;;;33.42;25.63;;;;;;;15.23;55.45;99310.69;5035193;28;20495;-74
2021/04/28 04:52:58;;;;;;;31.05;25.83;;;;;;;15.25;55.14;99297.97;5034875;28;20112;-77
2021/04/28 04:55:24;;;;;;;36.22;26.55;;;;;;;15.14;55.50;99304.78;5035174;28;20052;-77
2021/04/28 04:57:50;;;;;;;27.45;24.55;;;;;;;15.13;55.75;99319.13;5037063;28;20033;-77
2021/04/28 05:00:16;;;;;;;26.25;22.15;;;;;;;14.63;55.83;99241.03;5037995;28;20029;-77
2021/04/28 05:02:41;;;;;;;27.05;22.73;;;;;;;15.15;55.82;99308.28;5017355;28;20022;-78
2021/04/28 05:05:07;;;;;;;29.02;21.60;;;;;;;15.10;55.86;99306.25;5034907;28;20052;-77
2021/04/28 05:07:33;;;;;;;32.08;26.20;;;;;;;15.21;55.56;99302.91;5034812;28;20025;-77
2021/04/28 05:09:58;;;;;;;28.35;24.52;;;;;;;14.97;55.90;99289.56;5034777;28;20029;-76
2021/04/28 05:12:24;;;;;;;34.40;26.38;;;;;;;15.14;55.98;99312.78;5034596;28;20120;-78
2021/04/28 05:14:49;;;;;;;31.83;26.17;;;;;;;15.19;55.73;99309.47;5034780;28;20109;-77
2021/04/28 05:17:15;;;;;;;30.33;23.15;;;;;;;15.16;55.85;99315.22;5034756;28;20029;-78
2021/04/28 05:19:41;;;;;;;29.42;22.73;;;;;;;14.74;55.89;99252.84;5034921;28;20083;-77
2021/04/28 05:22:06;;;;;;;32.50;24.30;;;;;;;14.93;55.90;99284.66;5034731;28;20029;-77
2021/04/28 05:24:31;;;;;;;25.95;22.23;;;;;;;15.13;56.09;99316.47;5034505;28;20029;-76
2021/04/28 05:26:57;;;;;;;23.92;21.27;;;;;;;14.81;55.75;99270.38;5034666;28;20034;-77
2021/04/28 05:29:22;;;;;;;25.35;20.90;;;;;;;15.29;55.56;99330.28;5034780;28;20040;-77
2021/04/28 05:31:48;;;;;;;25.73;21.20;;;;;;;15.46;55.46;99331.41;5016883;28;20339;-78
2021/04/28 05:34:13;;;;;;;24.77;22.08;;;;;;;15.57;55.32;99336.88;5017138;28;20033;-78
2021/04/28 05:36:39;;;;;;;25.20;21.17;;;;;;;15.63;54.95;99339.75;5035087;28;20044;-77
2021/04/28 05:39:04;;;;;;;21.75;18.08;;;;;;;15.63;54.66;99329.09;5032130;28;20033;-76
2021/04/28 05:41:30;;;;;;;23.77;20.25;;;;;;;15.52;54.77;99317.25;5033941;28;20030;-75
2021/04/28 05:43:56;;;;;;;20.73;18.52;;;;;;;15.58;54.74;99343.84;5036193;28;20017;-74
2021/04/28 05:46:22;;;;;;;23.05;20.52;;;;;;;15.64;54.91;99352.84;5015210;28;20121;-78
2021/04/28 05:48:48;;;;;;;22.88;20.15;;;;;;;15.36;54.94;99291.16;5032512;28;20436;-76
2021/04/28 05:51:13;;;;;;;20.75;18.75;;;;;;;15.64;54.44;99333.38;5034170;28;20093;-74
2021/04/28 05:53:39;;;;;;;24.75;19.45;;;;;;;15.68;54.54;99314.13;5052417;28;20240;-75
2021/04/28 05:56:05;;;;;;;20.80;16.13;;;;;;;15.84;54.33;99332.22;5039158;28;20103;-76
2021/04/28 05:58:31;;;;;;;21.25;18.50;;;;;;;15.89;54.05;99340.34;5036454;28;20064;-78
2021/04/28 06:00:56;;;;;;;23.20;19.33;;;;;;;15.78;54.30;99333.06;5047657;28;20390;-76
2021/04/28 06:03:22;;;;;;;22.85;20.52;;;;;;;15.74;54.02;99325.75;5034067;28;20423;-75
2021/04/28 06:05:48;;;;;;;21.80;19.58;;;;;;;15.63;54.02;99302.50;5034067;28;20150;-75
2021/04/28 06:08:13;;;;;;;18.98;16.55;;;;;;;15.80;54.06;99346.16;5036877;28;20025;-75
2021/04/28 06:10:40;;;;;;;18.83;16.73;;;;;;;15.62;54.09;99325.63;5053736;28;20191;-73
2021/04/28 06:13:05;;;;;;;18.63;15.88;;;;;;;15.74;54.18;99355.84;5048060;28;20099;-77
2021/04/28 06:15:31;;;;;;;26.90;20.85;;;;;;;15.71;54.30;99353.59;5034084;28;20116;-75
2021/04/28 06:17:56;;;;;;;23.15;18.45;;;;;;;15.52;54.46;99323.38;5033726;28;20041;-76
2021/04/28 06:20:23;;;;;;;17.77;15.95;;;;;;;15.80;54.27;99349.66;5034140;28;20029;-78
2021/04/28 06:22:49;;;;;;;15.75;14.05;;;;;;;15.83;53.80;99357.19;5031590;28;20136;-77
2021/04/28 06:25:16;;;;;;;19.33;15.07;;;;;;;15.87;53.50;99331.78;5041784;28;20055;-76
2021/04/28 06:27:41;;;;;;;15.70;13.88;;;;;;;15.91;53.59;99348.13;5053524;28;20072;-75
2021/04/28 06:30:09;;;;;;;23.10;16.17;;;;;;;15.70;53.37;99305.91;5037865;28;20057;-74
2021/04/28 06:32:34;;;;;;;18.77;14.88;;;;;;;15.98;53.33;99334.75;5013365;28;20356;-77
2021/04/28 06:35:00;;;;;;;21.88;13.15;;;;;;;15.99;52.87;99315.91;5033491;28;20049;-75
2021/04/28 06:37:25;;;;;;;17.38;14.05;;;;;;;15.88;52.78;99298.78;5013748;28;20033;-74
2021/04/28 06:39:51;;;;;;;17.92;14.13;;;;;;;15.93;52.32;99292.00;5025464;28;20029;-76
2021/04/28 06:42:18;;;;;;;18.17;13.48;;;;;;;16.19;52.52;99329.03;5012015;28;20763;-77
2021/04/28 06:44:43;;;;;;;17.25;12.68;;;;;;;16.42;51.90;99350.56;5033573;28;20043;-77
2021/04/28 06:47:09;;;;;;;15.50;12.82;;;;;;;16.43;52.00;99343.38;5032670;28;20424;-78
2021/04/28 06:49:34;;;;;;;16.33;13.10;;;;;;;16.41;51.67;99330.28;5034857;28;20034;-76
2021/04/28 06:51:59;;;;;;;16.42;13.02;;;;;;;16.59;51.52;99344.66;5031810;28;20036;-77
2021/04/28 06:54:25;;;;;;;15.13;11.68;;;;;;;16.72;50.88;99341.88;5045618;28;20037;-76
2021/04/28 06:56:51;;;;;;;15.30;11.88;;;;;;;16.71;50.49;99321.56;5044715;28;20056;-78
2021/04/28 06:59:18;;;;;;;20.42;13.18;;;;;;;16.35;50.35;99285.03;5025812;28;20021;-79
2021/04/28 07:01:51;;;;;;;16.25;13.30;;;;;;;16.39;50.01;99280.91;5019028;28;20044;-78
2021/04/28 07:04:18;;;;;;;15.43;12.13;;;;;;;16.77;50.33;99334.00;5046840;28;20127;-77
2021/04/28 07:06:44;;;;;;;13.65;10.88;;;;;;;16.84;50.08;99340.06;5045671;28;20332;-78
2021/04/28 07:09:09;;;;;;;17.60;12.88;;;;;;;16.87;49.83;99333.47;5036781;28;20032;-78
2021/04/28 07:11:35;;;;;;;16.42;12.35;;;;;;;16.64;49.68;99302.16;5018355;28;20029;-77
2021/04/28 07:14:00;;;;;;;19.25;12.82;;;;;;;16.93;49.54;99352.06;5035791;28;20114;-77
2021/04/28 07:16:25;;;;;;;14.98;12.07;;;;;;;16.71;49.00;99294.91;5036108;28;20033;-75
2021/04/28 07:18:51;;;;;;;18.08;11.32;;;;;;;17.13;48.71;99341.19;5023431;28;20344;-77
2021/04/28 07:21:17;;;;;;;20.88;13.20;;;;;;;16.43;48.66;99229.59;5019297;28;20099;-78
2021/04/28 07:23:43;;;;;;;15.35;11.32;;;;;;;17.01;48.60;99306.41;5039126;28;20030;-78
2021/04/28 07:26:09;;;;;;;16.38;11.90;;;;;;;17.07;48.10;99307.38;5047730;28;20036;-80
2021/04/28 07:28:35;;;;;;;15.45;11.40;;;;;;;17.50;47.74;99349.91;5032039;28;20127;-77
2021/04/28 07:31:01;;;;;;;20.45;12.48;;;;;;;17.45;47.75;99329.22;5035622;28;20352;-80
2021/04/28 07:33:26;;;;;;;16.83;11.55;;;;;;;17.58;47.69;99328.22;5017789;28;20036;-77
2021/04/28 07:35:52;;;;;;;17.25;12.93;;;;;;;17.33;47.79;99293.69;5035296;28;20059;-78
2021/04/28 07:38:17;;;;;;;14.73;11.95;;;;;;;17.91;47.18;99373.16;5036413;28;20104;-78
2021/04/28 07:40:43;;;;;;;17.95;12.65;;;;;;;17.43;47.12;99283.28;5038140;28;20022;-80
2021/04/28 07:43:08;;;;;;;16.25;11.77;;;;;;;17.95;47.07;99354.81;5035366;28;20029;-80
2021/04/28 07:45:35;;;;;;;15.80;12.52;;;;;;;18.09;47.33;99398.97;5034421;28;20030;-79
2021/04/28 07:48:07;;;;;;;15.90;12.55;;;;;;;18.19;47.13;99390.38;5018590;28;20040;-78
2021/04/28 07:50:34;;;;;;;18.85;12.68;;;;;;;18.26;47.01;99377.72;5018748;28;20025;-81
2021/04/28 07:52:59;;;;;;;13.70;11.70;;;;;;;18.19;46.79;99352.97;5040998;28;20111;-77
2021/04/28 07:55:25;;;;;;;15.70;12.18;;;;;;;18.17;46.71;99342.53;5021554;28;20044;-79
2021/04/28 07:57:50;;;;;;;17.77;11.90;;;;;;;18.54;46.28;99371.69;5034629;28;20368;-81
2021/04/28 08:00:18;;;;;;;15.13;12.18;;;;;;;18.25;45.88;99328.00;5022908;28;20072;-81
2021/04/28 08:02:43;;;;;;;15.40;12.13;;;;;;;18.67;46.25;99368.81;5021931;28;20036;-80
2021/04/28 08:05:10;;;;;;;14.18;11.25;;;;;;;18.69;45.53;99372.06;5018737;28;20021;-79
2021/04/28 08:07:36;;;;;;;16.00;11.23;;;;;;;18.75;44.94;99360.44;5018529;28;20033;-82
2021/04/28 08:10:04;;;;;;;17.42;11.80;;;;;;;18.74;45.10;99337.41;5039671;28;20033;-77
2021/04/28 08:12:30;;;;;;;15.23;11.85;;;;;;;18.87;45.06;99345.16;5036413;28;20112;-82
2021/04/28 08:14:56;;;;;;;14.60;11.10;;;;;;;19.05;44.63;99363.72;5039929;28;20483;-79
2021/04/28 08:17:22;;;;;;;15.55;10.40;;;;;;;19.08;44.84;99364.31;5034930;28;20045;-77
2021/04/28 08:19:47;;;;;;;16.15;12.98;;;;;;;19.18;44.41;99370.66;5035259;28;20036;-78
2021/04/28 08:22:13;;;;;;;17.75;10.07;;;;;;;19.13;43.98;99327.75;5024855;28;20024;-76
2021/04/28 08:24:38;;;;;;;16.10;9.70;;;;;;;19.40;43.47;99359.31;5035741;28;20021;-77
2021/04/28 08:27:05;;;;;;;11.02;9.20;;;;;;;19.47;43.13;99354.63;5035793;28;20044;-79
2021/04/28 08:29:31;;;;;;;10.45;9.07;;;;;;;19.33;42.83;99309.41;5020818;28;20118;-78
2021/04/28 08:31:56;;;;;;;12.70;8.93;;;;;;;19.72;42.83;99357.78;5031872;28;20456;-78
2021/04/28 08:34:22;;;;;;;14.90;8.95;;;;;;;19.39;42.68;99288.91;5036140;28;20025;-81
2021/04/28 08:36:47;;;;;;;12.95;8.95;;;;;;;19.87;42.39;99336.59;5043890;28;20056;-78
2021/04/28 08:39:13;;;;;;;10.98;8.63;;;;;;;19.96;42.09;99331.66;5047545;28;20079;-79
2021/04/28 08:41:39;;;;;;;10.02;8.68;;;;;;;20.18;41.74;99337.91;5031192;28;20021;-80
2021/04/28 08:44:08;;;;;;;10.85;8.63;;;;;;;20.40;41.52;99346.03;5031193;28;20031;-79
2021/04/28 08:46:35;;;;;;;14.80;8.40;;;;;;;20.23;41.20;99291.59;5043781;28;20029;-79
2021/04/28 08:49:02;;;;;;;8.93;7.50;;;;;;;20.43;40.69;99310.69;5022466;28;20024;-77
2021/04/28 08:51:27;;;;;;;11.35;7.85;;;;;;;20.82;40.11;99357.09;5036504;28;20431;-77
2021/04/28 08:53:53;;;;;;;13.52;8.38;;;;;;;20.75;39.59;99318.88;5015924;28;20036;-80
2021/04/28 08:56:20;;;;;;;11.10;8.57;;;;;;;20.87;39.42;99326.81;5020439;28;20403;-78
2021/04/28 08:58:45;;;;;;;11.23;8.07;;;;;;;20.72;38.96;99271.06;5037341;28;20026;-78
2021/04/28 09:01:26;;;;;;;12.90;8.75;;;;;;;21.32;38.20;99331.91;5038943;28;20117;-80
2021/04/28 09:03:51;;;;;;;8.25;7.40;;;;;;;21.29;38.02;99329.72;5032401;28;20459;-77
2021/04/28 09:06:32;;;;;;;10.65;6.82;;;;;;;21.47;37.72;99339.31;5038836;28;20021;-78
2021/04/28 09:09:23;;;;;;;8.95;6.88;;;;;;;21.19;37.26;99241.81;5022136;28;20029;-80
2021/04/28 09:11:51;;;;;;;8.35;7.43;;;;;;;21.58;37.29;99267.72;5034127;28;20041;-76
2021/04/28 09:14:19;;;;;;;10.35;7.55;;;;;;;22.04;36.60;99310.00;5038023;28;20108;-76
2021/04/28 09:16:45;;;;;;;10.38;8.80;;;;;;;22.08;35.99;99303.06;5039074;28;20021;-76
2021/04/28 09:19:31;;;;;;;12.52;7.82;;;;;;;22.23;35.12;99304.22;5035663;28;20100;-78
2021/04/28 09:22:04;;;;;;;15.18;9.48;;;;;;;21.99;35.64;99231.97;5037031;28;20525;-77
2021/04/28 09:24:35;;;;;;;9.70;8.13;;;;;;;22.60;35.34;99291.53;5032472;28;20104;-78
2021/04/28 09:27:04;;;;;;;8.82;6.22;;;;;;;22.46;34.94;99234.69;5033361;28;20098;-81
2021/04/28 09:29:32;;;;;;;9.32;7.35;;;;;;;23.03;34.58;99290.34;5041601;28;20028;-78
2021/04/28 09:32:06;;;;;;;9.82;7.78;;;;;;;22.82;33.48;99224.06;5034990;28;20132;-78
2021/04/28 09:34:39;;;;;;;10.65;7.78;;;;;;;23.38;33.84;99284.25;5017698;28;20041;-77
2021/04/28 09:37:15;;;;;;;10.55;8.35;;;;;;;23.42;33.30;99277.25;5014535;28;20337;-79
2021/04/28 09:39:43;;;;;;;10.50;9.23;;;;;;;23.61;33.50;99274.03;5016484;28;20108;-77
2021/04/28 09:42:10;;;;;;;8.45;7.22;;;;;;;23.78;33.24;99271.88;5034381;28;20105;-79
2021/04/28 09:44:37;;;;;;;9.68;8.07;;;;;;;23.93;32.85;99271.91;5034919;28;20490;-77
2021/04/28 09:47:21;;;;;;;8.07;6.57;;;;;;;24.14;32.65;99278.06;5034217;28;20419;-79
2021/04/28 09:50:01;;;;;;;9.38;7.65;;;;;;;24.40;32.34;99262.63;5034597;28;20028;-79
2021/04/28 09:52:29;;;;;;;10.00;7.57;;;;;;;24.63;31.62;99270.13;5035545;28;20025;-79
2021/04/28 09:54:58;;;;;;;8.02;7.05;;;;;;;24.15;31.42;99189.84;5016861;28;20021;-77
2021/04/28 09:57:47;;;;;;;8.52;7.28;;;;;;;24.73;30.59;99257.66;5018686;28;20026;-78
2021/04/28 10:00:25;;;;;;;8.50;6.88;;;;;;;24.31;30.59;99164.44;5045549;28;20028;-77
2021/04/28 10:03:10;;;;;;;8.05;6.78;;;;;;;24.93;30.77;99252.16;5020990;28;20025;-78
2021/04/28 10:05:37;;;;;;;8.55;6.45;;;;;;;24.86;30.60;99248.97;5035085;28;20034;-77
2021/04/28 10:08:19;;;;;;;9.98;7.53;;;;;;;24.68;30.07;99221.50;5020556;28;20060;-77
2021/04/28 10:10:46;;;;;;;10.57;7.43;;;;;;;24.42;29.82;99132.81;5044546;28;20427;-80
2021/04/28 10:13:13;;;;;;;11.20;8.38;;;;;;;25.24;30.09;99250.09;5029307;28;20093;-78
2021/04/28 10:15:40;;;;;;;11.23;8.48;;;;;;;25.16;29.79;99248.78;5060079;28;20024;-77
2021/04/28 10:18:13;;;;;;;11.02;8.40;;;;;;;25.26;29.77;99251.41;5042185;28;20025;-79
2021/04/28 10:20:42;;;;;;;12.35;8.63;;;;;;;25.35;29.85;99246.25;5027836;28;20028;-79
2021/04/28 10:23:10;;;;;;;11.77;8.82;;;;;;;25.59;29.90;99249.03;5046193;28;20041;-78
2021/04/28 10:25:37;;;;;;;13.70;8.65;;;;;;;25.40;29.45;99181.34;5023901;28;20091;-75
2021/04/28 10:28:09;;;;;;;11.27;8.40;;;;;;;25.42;29.38;99146.72;5037962;28;20029;-78
2021/04/28 10:30:36;;;;;;;10.32;8.52;;;;;;;26.12;29.16;99225.56;5043314;28;20096;-77
2021/04/28 10:33:04;;;;;;;14.13;8.90;;;;;;;26.10;28.83;99227.75;5049432;28;20056;-77
2021/04/28 10:35:30;;;;;;;9.25;7.25;;;;;;;25.94;29.19;99194.63;5036397;28;20029;-77
2021/04/28 10:37:57;;;;;;;10.07;7.10;;;;;;;26.19;28.95;99220.63;5020522;28;20041;-79
2021/04/28 10:40:25;;;;;;;6.50;5.90;;;;;;;25.96;28.79;99200.56;5038389;28;20108;-76
2021/04/28 10:42:51;;;;;;;7.82;6.68;;;;;;;25.28;28.76;99124.16;5036194;28;20036;-78
2021/04/28 10:45:22;;;;;;;6.82;5.85;;;;;;;25.80;29.02;99228.03;5039697;28;20530;-80
2021/04/28 10:47:52;;;;;;;10.05;6.68;;;;;;;25.77;29.10;99224.00;5039313;28;20021;-80
2021/04/28 10:50:38;;;;;;;10.93;6.38;;;;;;;25.54;29.17;99225.56;5036643;28;20040;-78
2021/04/28 10:53:27;;;;;;;6.53;5.80;;;;;;;25.22;29.82;99230.66;5030534;28;20312;-80
2021/04/28 10:55:56;;;;;;;8.23;6.22;;;;;;;25.40;29.89;99221.09;5025991;28;20029;-78
2021/04/28 10:58:35;;;;;;;8.52;6.18;;;;;;;25.50;29.59;99212.88;5042140;28;20435;-78
2021/04/28 11:01:00;;;;;;;8.60;7.07;;;;;;;25.50;29.53;99212.88;5045534;28;20108;-77
2021/04/28 11:03:33;;;;;;;9.80;7.70;;;;;;;25.38;29.94;99218.66;5036719;28;20045;-79
2021/04/28 11:08:44;;;;;;;9.18;7.28;;;;;;;25.51;30.06;99211.78;5035258;28;20037;-79
2021/04/28 11:14:18;;;;;;;10.38;7.97;;;;;;;26.02;29.25;99209.44;5037258;28;20040;-79
2021/04/28 11:16:45;;;;;;;8.20;6.78;;;;;;;25.54;29.22;99109.31;5038139;28;20031;-78
2021/04/28 11:19:19;;;;;;;8.98;6.28;;;;;;;26.24;28.78;99174.53;5057379;28;20098;-78
2021/04/28 11:21:45;;;;;;;9.52;6.95;;;;;;;26.62;28.42;99198.19;5039931;28;20030;-78
2021/04/28 11:24:17;;;;;;;11.13;7.45;;;;;;;26.22;28.14;99114.50;5015620;28;20032;-77
2021/04/28 11:26:50;;;;;;;7.88;6.43;;;;;;;26.84;28.12;99184.91;5029389;28;20091;-76
2021/04/28 11:29:20;;;;;;;10.90;7.30;;;;;;;27.07;28.13;99189.44;5008302;28;20030;-75